sensor_id;sensor_type;location;lat;lon;timestamp;P1;durP1;ratioP1;P2;durP2;ratioP2
17696;SDS011;8967;47.984;7.842;2023-04-03T00:00:29;5.28;;;3.20;;
17696;SDS011;8967;47.984;7.842;2023-04-03T00:02:56;3.80;;;3.10;;
17696;SDS011;8967;47.984;7.842;2023-04-03T00:05:23;2.97;;;2.75;;
17696;SDS011;8967;47.984;7.842;2023-04-03T00:07:50;3.83;;;3.42;;
17696;SDS011;8967;47.984;7.842;2023-04-03T00:10:18;3.45;;;2.95;;
17696;SDS011;8967;47.984;7.842;2023-04-03T00:12:45;3.42;;;2.92;;
17696;SDS011;8967;47.984;7.842;2023-04-03T00:15:12;4.28;;;3.28;;
17696;SDS011;8967;47.984;7.842;2023-04-03T00:17:43;3.47;;;2.88;;
17696;SDS011;8967;47.984;7.842;2023-04-03T00:20:10;3.45;;;3.05;;
17696;SDS011;8967;47.984;7.842;2023-04-03T00:22:38;4.10;;;3.00;;
17696;SDS011;8967;47.984;7.842;2023-04-03T00:25:07;5.43;;;3.37;;
17696;SDS011;8967;47.984;7.842;2023-04-03T00:27:37;2.73;;;2.40;;
17696;SDS011;8967;47.984;7.842;2023-04-03T00:30:07;3.17;;;2.60;;
17696;SDS011;8967;47.984;7.842;2023-04-03T00:32:36;4.03;;;3.10;;
17696;SDS011;8967;47.984;7.842;2023-04-03T00:35:03;3.03;;;2.80;;
17696;SDS011;8967;47.984;7.842;2023-04-03T00:37:31;4.97;;;2.70;;
17696;SDS011;8967;47.984;7.842;2023-04-03T00:39:58;4.90;;;2.97;;
17696;SDS011;8967;47.984;7.842;2023-04-03T00:42:25;3.75;;;3.00;;
17696;SDS011;8967;47.984;7.842;2023-04-03T00:47:50;4.33;;;3.03;;
17696;SDS011;8967;47.984;7.842;2023-04-03T00:50:17;4.20;;;3.15;;
17696;SDS011;8967;47.984;7.842;2023-04-03T00:52:44;3.13;;;2.67;;
17696;SDS011;8967;47.984;7.842;2023-04-03T00:55:14;3.58;;;2.70;;
17696;SDS011;8967;47.984;7.842;2023-04-03T00:57:42;2.87;;;2.60;;
17696;SDS011;8967;47.984;7.842;2023-04-03T01:00:12;3.30;;;2.45;;
17696;SDS011;8967;47.984;7.842;2023-04-03T01:02:43;3.90;;;2.38;;
17696;SDS011;8967;47.984;7.842;2023-04-03T01:05:12;2.85;;;2.38;;
17696;SDS011;8967;47.984;7.842;2023-04-03T01:07:41;4.80;;;2.70;;
17696;SDS011;8967;47.984;7.842;2023-04-03T01:10:11;4.07;;;2.80;;
17696;SDS011;8967;47.984;7.842;2023-04-03T01:12:41;3.73;;;2.30;;
17696;SDS011;8967;47.984;7.842;2023-04-03T01:15:10;2.95;;;2.50;;
17696;SDS011;8967;47.984;7.842;2023-04-03T01:17:40;2.80;;;2.43;;
17696;SDS011;8967;47.984;7.842;2023-04-03T01:23:16;3.63;;;2.70;;
17696;SDS011;8967;47.984;7.842;2023-04-03T01:25:54;7.73;;;2.60;;
17696;SDS011;8967;47.984;7.842;2023-04-03T01:28:23;3.13;;;2.40;;
17696;SDS011;8967;47.984;7.842;2023-04-03T01:30:57;3.85;;;2.42;;
17696;SDS011;8967;47.984;7.842;2023-04-03T01:33:32;2.60;;;2.40;;
17696;SDS011;8967;47.984;7.842;2023-04-03T01:36:00;2.77;;;2.50;;
17696;SDS011;8967;47.984;7.842;2023-04-03T01:38:29;3.20;;;2.65;;
17696;SDS011;8967;47.984;7.842;2023-04-03T01:40:57;2.47;;;2.27;;
17696;SDS011;8967;47.984;7.842;2023-04-03T01:43:24;3.20;;;2.38;;
17696;SDS011;8967;47.984;7.842;2023-04-03T01:45:51;3.03;;;2.10;;
17696;SDS011;8967;47.984;7.842;2023-04-03T01:48:22;2.63;;;2.40;;
17696;SDS011;8967;47.984;7.842;2023-04-03T01:50:50;3.10;;;2.30;;
17696;SDS011;8967;47.984;7.842;2023-04-03T01:53:19;2.83;;;2.20;;
17696;SDS011;8967;47.984;7.842;2023-04-03T01:55:45;2.80;;;2.25;;
17696;SDS011;8967;47.984;7.842;2023-04-03T01:58:15;2.90;;;2.58;;
17696;SDS011;8967;47.984;7.842;2023-04-03T02:00:42;1.90;;;1.80;;
17696;SDS011;8967;47.984;7.842;2023-04-03T02:03:11;2.10;;;1.90;;
17696;SDS011;8967;47.984;7.842;2023-04-03T02:05:38;3.10;;;2.17;;
17696;SDS011;8967;47.984;7.842;2023-04-03T02:08:09;2.55;;;1.98;;
17696;SDS011;8967;47.984;7.842;2023-04-03T02:10:39;2.10;;;1.90;;
17696;SDS011;8967;47.984;7.842;2023-04-03T02:13:06;2.05;;;1.73;;
17696;SDS011;8967;47.984;7.842;2023-04-03T02:15:33;2.67;;;2.10;;
17696;SDS011;8967;47.984;7.842;2023-04-03T02:18:03;2.87;;;2.30;;
17696;SDS011;8967;47.984;7.842;2023-04-03T02:20:30;2.63;;;2.40;;
17696;SDS011;8967;47.984;7.842;2023-04-03T02:22:58;2.80;;;2.30;;
17696;SDS011;8967;47.984;7.842;2023-04-03T02:25:27;2.70;;;2.00;;
17696;SDS011;8967;47.984;7.842;2023-04-03T02:27:56;3.10;;;2.10;;
17696;SDS011;8967;47.984;7.842;2023-04-03T02:30:23;3.10;;;2.40;;
17696;SDS011;8967;47.984;7.842;2023-04-03T02:32:52;3.23;;;2.50;;
17696;SDS011;8967;47.984;7.842;2023-04-03T02:35:19;2.13;;;1.90;;
17696;SDS011;8967;47.984;7.842;2023-04-03T02:37:48;2.47;;;2.05;;
17696;SDS011;8967;47.984;7.842;2023-04-03T02:40:16;3.27;;;1.90;;
17696;SDS011;8967;47.984;7.842;2023-04-03T02:42:45;2.35;;;2.03;;
17696;SDS011;8967;47.984;7.842;2023-04-03T02:45:12;3.47;;;1.90;;
17696;SDS011;8967;47.984;7.842;2023-04-03T02:47:39;3.20;;;2.50;;
17696;SDS011;8967;47.984;7.842;2023-04-03T02:50:06;3.43;;;2.27;;
17696;SDS011;8967;47.984;7.842;2023-04-03T02:52:33;3.37;;;2.43;;
17696;SDS011;8967;47.984;7.842;2023-04-03T02:55:00;2.57;;;2.00;;
17696;SDS011;8967;47.984;7.842;2023-04-03T02:57:28;2.77;;;2.00;;
17696;SDS011;8967;47.984;7.842;2023-04-03T02:59:56;3.00;;;2.53;;
17696;SDS011;8967;47.984;7.842;2023-04-03T03:02:23;3.27;;;2.23;;
17696;SDS011;8967;47.984;7.842;2023-04-03T03:04:50;2.30;;;2.10;;
17696;SDS011;8967;47.984;7.842;2023-04-03T03:07:16;4.07;;;2.43;;
17696;SDS011;8967;47.984;7.842;2023-04-03T03:09:43;3.30;;;2.30;;
17696;SDS011;8967;47.984;7.842;2023-04-03T03:12:12;4.17;;;2.03;;
17696;SDS011;8967;47.984;7.842;2023-04-03T03:14:39;2.60;;;2.37;;
17696;SDS011;8967;47.984;7.842;2023-04-03T03:17:12;2.47;;;2.20;;
17696;SDS011;8967;47.984;7.842;2023-04-03T03:19:39;2.57;;;2.37;;
17696;SDS011;8967;47.984;7.842;2023-04-03T03:22:06;2.80;;;2.17;;
17696;SDS011;8967;47.984;7.842;2023-04-03T03:24:50;3.60;;;2.20;;
17696;SDS011;8967;47.984;7.842;2023-04-03T03:27:17;2.50;;;2.30;;
17696;SDS011;8967;47.984;7.842;2023-04-03T03:29:44;2.30;;;1.90;;
17696;SDS011;8967;47.984;7.842;2023-04-03T03:32:15;2.93;;;2.20;;
17696;SDS011;8967;47.984;7.842;2023-04-03T03:34:42;3.47;;;2.33;;
17696;SDS011;8967;47.984;7.842;2023-04-03T03:37:09;2.37;;;1.93;;
17696;SDS011;8967;47.984;7.842;2023-04-03T03:39:38;5.00;;;2.08;;
17696;SDS011;8967;47.984;7.842;2023-04-03T03:42:05;3.10;;;2.53;;
17696;SDS011;8967;47.984;7.842;2023-04-03T03:44:32;2.37;;;2.03;;
17696;SDS011;8967;47.984;7.842;2023-04-03T03:46:59;3.37;;;2.03;;
17696;SDS011;8967;47.984;7.842;2023-04-03T03:49:30;4.23;;;2.10;;
17696;SDS011;8967;47.984;7.842;2023-04-03T03:51:57;2.50;;;2.10;;
17696;SDS011;8967;47.984;7.842;2023-04-03T03:54:24;3.25;;;2.03;;
17696;SDS011;8967;47.984;7.842;2023-04-03T03:56:53;2.53;;;2.33;;
17696;SDS011;8967;47.984;7.842;2023-04-03T03:59:23;2.28;;;1.98;;
17696;SDS011;8967;47.984;7.842;2023-04-03T04:01:50;3.30;;;2.00;;
17696;SDS011;8967;47.984;7.842;2023-04-03T04:04:17;3.40;;;2.00;;
17696;SDS011;8967;47.984;7.842;2023-04-03T04:06:50;3.63;;;2.00;;
17696;SDS011;8967;47.984;7.842;2023-04-03T04:09:17;4.30;;;1.83;;
17696;SDS011;8967;47.984;7.842;2023-04-03T04:11:44;2.63;;;1.80;;
17696;SDS011;8967;47.984;7.842;2023-04-03T04:14:15;2.93;;;1.93;;
17696;SDS011;8967;47.984;7.842;2023-04-03T04:16:44;2.87;;;2.00;;
17696;SDS011;8967;47.984;7.842;2023-04-03T04:19:16;2.10;;;1.90;;
17696;SDS011;8967;47.984;7.842;2023-04-03T04:21:44;2.00;;;1.70;;
17696;SDS011;8967;47.984;7.842;2023-04-03T04:24:12;4.80;;;1.70;;
17696;SDS011;8967;47.984;7.842;2023-04-03T04:26:42;3.00;;;2.00;;
17696;SDS011;8967;47.984;7.842;2023-04-03T04:29:13;2.45;;;2.10;;
17696;SDS011;8967;47.984;7.842;2023-04-03T04:31:42;2.50;;;2.10;;
17696;SDS011;8967;47.984;7.842;2023-04-03T04:34:15;2.78;;;1.88;;
17696;SDS011;8967;47.984;7.842;2023-04-03T04:36:42;2.30;;;1.83;;
17696;SDS011;8967;47.984;7.842;2023-04-03T04:39:09;1.70;;;1.60;;
17696;SDS011;8967;47.984;7.842;2023-04-03T04:41:38;3.37;;;1.83;;
17696;SDS011;8967;47.984;7.842;2023-04-03T04:44:06;3.63;;;2.13;;
17696;SDS011;8967;47.984;7.842;2023-04-03T04:46:34;1.73;;;1.63;;
17696;SDS011;8967;47.984;7.842;2023-04-03T04:49:01;2.60;;;2.40;;
17696;SDS011;8967;47.984;7.842;2023-04-03T04:51:29;2.33;;;2.13;;
17696;SDS011;8967;47.984;7.842;2023-04-03T04:53:59;2.00;;;1.80;;
17696;SDS011;8967;47.984;7.842;2023-04-03T04:56:26;3.33;;;2.30;;
17696;SDS011;8967;47.984;7.842;2023-04-03T04:58:56;2.43;;;2.00;;
17696;SDS011;8967;47.984;7.842;2023-04-03T05:01:24;2.83;;;1.87;;
17696;SDS011;8967;47.984;7.842;2023-04-03T05:04:10;1.90;;;1.53;;
17696;SDS011;8967;47.984;7.842;2023-04-03T05:06:38;2.13;;;1.97;;
17696;SDS011;8967;47.984;7.842;2023-04-03T05:09:10;2.17;;;1.97;;
17696;SDS011;8967;47.984;7.842;2023-04-03T05:11:39;2.50;;;1.83;;
17696;SDS011;8967;47.984;7.842;2023-04-03T05:14:08;2.00;;;1.90;;
17696;SDS011;8967;47.984;7.842;2023-04-03T05:16:38;2.43;;;1.77;;
17696;SDS011;8967;47.984;7.842;2023-04-03T05:19:06;2.57;;;1.70;;
17696;SDS011;8967;47.984;7.842;2023-04-03T05:21:33;2.47;;;2.00;;
17696;SDS011;8967;47.984;7.842;2023-04-03T05:24:06;2.20;;;2.00;;
17696;SDS011;8967;47.984;7.842;2023-04-03T05:26:37;1.90;;;1.80;;
17696;SDS011;8967;47.984;7.842;2023-04-03T05:29:05;3.13;;;2.03;;
17696;SDS011;8967;47.984;7.842;2023-04-03T05:31:34;2.63;;;2.20;;
17696;SDS011;8967;47.984;7.842;2023-04-03T05:34:02;2.10;;;1.85;;
17696;SDS011;8967;47.984;7.842;2023-04-03T05:36:34;2.33;;;1.90;;
17696;SDS011;8967;47.984;7.842;2023-04-03T05:39:04;2.67;;;2.00;;
17696;SDS011;8967;47.984;7.842;2023-04-03T05:41:34;2.37;;;2.00;;
17696;SDS011;8967;47.984;7.842;2023-04-03T05:44:01;4.27;;;2.00;;
17696;SDS011;8967;47.984;7.842;2023-04-03T05:46:30;3.10;;;2.20;;
17696;SDS011;8967;47.984;7.842;2023-04-03T05:49:03;2.93;;;2.40;;
17696;SDS011;8967;47.984;7.842;2023-04-03T05:51:33;2.50;;;2.30;;
17696;SDS011;8967;47.984;7.842;2023-04-03T05:54:25;2.33;;;2.10;;
17696;SDS011;8967;47.984;7.842;2023-04-03T05:57:07;2.73;;;2.30;;
17696;SDS011;8967;47.984;7.842;2023-04-03T05:59:37;2.90;;;2.33;;
17696;SDS011;8967;47.984;7.842;2023-04-03T06:02:04;3.53;;;2.63;;
17696;SDS011;8967;47.984;7.842;2023-04-03T06:04:32;3.23;;;2.30;;
17696;SDS011;8967;47.984;7.842;2023-04-03T06:07:02;4.20;;;2.43;;
17696;SDS011;8967;47.984;7.842;2023-04-03T06:09:29;2.60;;;2.40;;
17696;SDS011;8967;47.984;7.842;2023-04-03T06:11:59;3.47;;;2.97;;
17696;SDS011;8967;47.984;7.842;2023-04-03T06:14:28;2.93;;;2.47;;
17696;SDS011;8967;47.984;7.842;2023-04-03T06:16:54;5.17;;;2.47;;
17696;SDS011;8967;47.984;7.842;2023-04-03T06:19:22;2.93;;;2.60;;
17696;SDS011;8967;47.984;7.842;2023-04-03T06:21:56;3.93;;;2.30;;
17696;SDS011;8967;47.984;7.842;2023-04-03T06:24:23;3.40;;;2.47;;
17696;SDS011;8967;47.984;7.842;2023-04-03T06:26:51;4.07;;;2.80;;
17696;SDS011;8967;47.984;7.842;2023-04-03T06:29:21;4.27;;;2.33;;
17696;SDS011;8967;47.984;7.842;2023-04-03T06:31:48;4.10;;;2.37;;
17696;SDS011;8967;47.984;7.842;2023-04-03T06:34:15;4.27;;;3.07;;
17696;SDS011;8967;47.984;7.842;2023-04-03T06:36:45;2.20;;;2.00;;
17696;SDS011;8967;47.984;7.842;2023-04-03T06:39:19;2.73;;;2.20;;
17696;SDS011;8967;47.984;7.842;2023-04-03T06:41:48;1.67;;;1.57;;
17696;SDS011;8967;47.984;7.842;2023-04-03T06:44:19;2.67;;;2.30;;
17696;SDS011;8967;47.984;7.842;2023-04-03T06:46:47;3.53;;;2.30;;
17696;SDS011;8967;47.984;7.842;2023-04-03T06:49:16;2.13;;;1.90;;
17696;SDS011;8967;47.984;7.842;2023-04-03T06:51:43;2.33;;;2.13;;
17696;SDS011;8967;47.984;7.842;2023-04-03T06:54:09;10.60;;;2.17;;
17696;SDS011;8967;47.984;7.842;2023-04-03T06:56:38;2.13;;;1.73;;
17696;SDS011;8967;47.984;7.842;2023-04-03T06:59:05;3.42;;;1.83;;
17696;SDS011;8967;47.984;7.842;2023-04-03T07:01:32;1.83;;;1.67;;
17696;SDS011;8967;47.984;7.842;2023-04-03T07:03:59;1.65;;;1.55;;
17696;SDS011;8967;47.984;7.842;2023-04-03T07:06:26;2.05;;;1.50;;
17696;SDS011;8967;47.984;7.842;2023-04-03T07:08:52;1.83;;;1.60;;
17696;SDS011;8967;47.984;7.842;2023-04-03T07:11:20;2.00;;;1.80;;
17696;SDS011;8967;47.984;7.842;2023-04-03T07:13:48;2.22;;;1.65;;
17696;SDS011;8967;47.984;7.842;2023-04-03T07:16:16;2.47;;;1.60;;
17696;SDS011;8967;47.984;7.842;2023-04-03T07:18:43;2.22;;;1.90;;
17696;SDS011;8967;47.984;7.842;2023-04-03T07:21:10;2.23;;;1.33;;
17696;SDS011;8967;47.984;7.842;2023-04-03T07:23:37;1.60;;;1.50;;
17696;SDS011;8967;47.984;7.842;2023-04-03T07:26:05;1.70;;;1.50;;
17696;SDS011;8967;47.984;7.842;2023-04-03T07:28:33;2.13;;;1.70;;
17696;SDS011;8967;47.984;7.842;2023-04-03T07:31:04;1.57;;;1.47;;
17696;SDS011;8967;47.984;7.842;2023-04-03T07:33:35;2.03;;;1.60;;
17696;SDS011;8967;47.984;7.842;2023-04-03T07:36:03;2.33;;;1.90;;
17696;SDS011;8967;47.984;7.842;2023-04-03T07:38:32;2.50;;;2.05;;
17696;SDS011;8967;47.984;7.842;2023-04-03T07:41:00;2.13;;;1.80;;
17696;SDS011;8967;47.984;7.842;2023-04-03T07:43:32;2.20;;;1.80;;
17696;SDS011;8967;47.984;7.842;2023-04-03T07:46:00;2.43;;;1.93;;
17696;SDS011;8967;47.984;7.842;2023-04-03T07:48:31;3.25;;;1.80;;
17696;SDS011;8967;47.984;7.842;2023-04-03T07:51:00;2.53;;;2.30;;
17696;SDS011;8967;47.984;7.842;2023-04-03T07:53:30;4.38;;;2.50;;
17696;SDS011;8967;47.984;7.842;2023-04-03T07:55:58;3.17;;;1.90;;
17696;SDS011;8967;47.984;7.842;2023-04-03T07:58:28;2.00;;;1.80;;
17696;SDS011;8967;47.984;7.842;2023-04-03T08:00:55;3.05;;;2.50;;
17696;SDS011;8967;47.984;7.842;2023-04-03T08:03:22;3.58;;;2.45;;
17696;SDS011;8967;47.984;7.842;2023-04-03T08:05:51;2.22;;;2.03;;
17696;SDS011;8967;47.984;7.842;2023-04-03T08:08:19;6.20;;;2.20;;
17696;SDS011;8967;47.984;7.842;2023-04-03T08:10:48;2.42;;;2.03;;
17696;SDS011;8967;47.984;7.842;2023-04-03T08:13:18;2.92;;;2.60;;
17696;SDS011;8967;47.984;7.842;2023-04-03T08:15:46;2.40;;;2.22;;
17696;SDS011;8967;47.984;7.842;2023-04-03T08:18:13;2.30;;;2.10;;
17696;SDS011;8967;47.984;7.842;2023-04-03T08:20:42;2.30;;;2.00;;
17696;SDS011;8967;47.984;7.842;2023-04-03T08:23:11;4.50;;;2.40;;
17696;SDS011;8967;47.984;7.842;2023-04-03T08:25:39;3.75;;;2.67;;
17696;SDS011;8967;47.984;7.842;2023-04-03T08:28:08;2.28;;;2.08;;
17696;SDS011;8967;47.984;7.842;2023-04-03T08:30:38;2.90;;;2.50;;
17696;SDS011;8967;47.984;7.842;2023-04-03T08:33:05;2.90;;;2.47;;
17696;SDS011;8967;47.984;7.842;2023-04-03T08:35:33;2.60;;;2.30;;
17696;SDS011;8967;47.984;7.842;2023-04-03T08:38:04;3.55;;;2.53;;
17696;SDS011;8967;47.984;7.842;2023-04-03T08:40:32;3.20;;;2.65;;
17696;SDS011;8967;47.984;7.842;2023-04-03T08:43:02;6.50;;;2.70;;
17696;SDS011;8967;47.984;7.842;2023-04-03T08:45:43;3.10;;;2.63;;
17696;SDS011;8967;47.984;7.842;2023-04-03T08:48:15;3.08;;;2.58;;
17696;SDS011;8967;47.984;7.842;2023-04-03T08:50:47;2.42;;;2.22;;
17696;SDS011;8967;47.984;7.842;2023-04-03T08:53:18;3.67;;;2.30;;
17696;SDS011;8967;47.984;7.842;2023-04-03T08:55:49;3.72;;;2.38;;
17696;SDS011;8967;47.984;7.842;2023-04-03T08:58:18;3.38;;;2.55;;
17696;SDS011;8967;47.984;7.842;2023-04-03T09:00:52;3.70;;;2.38;;
17696;SDS011;8967;47.984;7.842;2023-04-03T09:03:23;2.77;;;2.50;;
17696;SDS011;8967;47.984;7.842;2023-04-03T09:05:50;4.50;;;2.80;;
17696;SDS011;8967;47.984;7.842;2023-04-03T09:08:26;2.88;;;2.55;;
17696;SDS011;8967;47.984;7.842;2023-04-03T09:11:09;2.83;;;2.33;;
17696;SDS011;8967;47.984;7.842;2023-04-03T09:13:44;2.63;;;2.40;;
17696;SDS011;8967;47.984;7.842;2023-04-03T09:16:25;4.65;;;2.28;;
17696;SDS011;8967;47.984;7.842;2023-04-03T09:19:02;5.50;;;2.90;;
17696;SDS011;8967;47.984;7.842;2023-04-03T09:21:38;3.10;;;2.55;;
17696;SDS011;8967;47.984;7.842;2023-04-03T09:24:07;3.17;;;2.35;;
17696;SDS011;8967;47.984;7.842;2023-04-03T09:26:43;3.85;;;2.92;;
17696;SDS011;8967;47.984;7.842;2023-04-03T09:29:18;4.13;;;2.60;;
17696;SDS011;8967;47.984;7.842;2023-04-03T09:31:50;4.65;;;2.40;;
17696;SDS011;8967;47.984;7.842;2023-04-03T09:34:20;3.78;;;2.47;;
17696;SDS011;8967;47.984;7.842;2023-04-03T09:36:56;3.03;;;2.50;;
17696;SDS011;8967;47.984;7.842;2023-04-03T09:39:24;3.55;;;2.50;;
17696;SDS011;8967;47.984;7.842;2023-04-03T09:42:01;3.30;;;2.55;;
17696;SDS011;8967;47.984;7.842;2023-04-03T09:44:30;3.88;;;2.20;;
17696;SDS011;8967;47.984;7.842;2023-04-03T09:46:59;3.00;;;2.53;;
17696;SDS011;8967;47.984;7.842;2023-04-03T09:49:42;2.88;;;2.25;;
17696;SDS011;8967;47.984;7.842;2023-04-03T09:52:19;2.67;;;2.08;;
17696;SDS011;8967;47.984;7.842;2023-04-03T09:54:49;4.15;;;1.80;;
17696;SDS011;8967;47.984;7.842;2023-04-03T09:57:28;1.98;;;1.73;;
17696;SDS011;8967;47.984;7.842;2023-04-03T10:00:00;2.83;;;2.03;;
17696;SDS011;8967;47.984;7.842;2023-04-03T10:02:37;2.20;;;1.83;;
17696;SDS011;8967;47.984;7.842;2023-04-03T10:05:24;3.10;;;1.65;;
17696;SDS011;8967;47.984;7.842;2023-04-03T10:08:03;1.63;;;1.50;;
17696;SDS011;8967;47.984;7.842;2023-04-03T10:10:36;2.05;;;1.55;;
17696;SDS011;8967;47.984;7.842;2023-04-03T10:13:07;1.65;;;1.48;;
17696;SDS011;8967;47.984;7.842;2023-04-03T10:15:39;1.92;;;1.73;;
17696;SDS011;8967;47.984;7.842;2023-04-03T10:18:20;1.98;;;1.77;;
17696;SDS011;8967;47.984;7.842;2023-04-03T10:20:56;2.58;;;1.60;;
17696;SDS011;8967;47.984;7.842;2023-04-03T10:23:29;2.42;;;1.90;;
17696;SDS011;8967;47.984;7.842;2023-04-03T10:26:05;2.67;;;1.73;;
17696;SDS011;8967;47.984;7.842;2023-04-03T10:28:45;3.35;;;1.40;;
17696;SDS011;8967;47.984;7.842;2023-04-03T10:31:21;2.08;;;1.65;;
17696;SDS011;8967;47.984;7.842;2023-04-03T10:33:56;2.80;;;1.77;;
17696;SDS011;8967;47.984;7.842;2023-04-03T10:36:33;2.47;;;1.50;;
17696;SDS011;8967;47.984;7.842;2023-04-03T10:39:08;1.73;;;1.60;;
17696;SDS011;8967;47.984;7.842;2023-04-03T10:41:47;1.63;;;1.52;;
17696;SDS011;8967;47.984;7.842;2023-04-03T10:44:27;2.05;;;1.40;;
17696;SDS011;8967;47.984;7.842;2023-04-03T10:47:04;2.88;;;1.60;;
17696;SDS011;8967;47.984;7.842;2023-04-03T10:49:42;3.20;;;1.50;;
17696;SDS011;8967;47.984;7.842;2023-04-03T10:52:17;1.65;;;1.55;;
17696;SDS011;8967;47.984;7.842;2023-04-03T10:54:49;4.25;;;2.95;;
17696;SDS011;8967;47.984;7.842;2023-04-03T10:57:26;3.30;;;1.45;;
17696;SDS011;8967;47.984;7.842;2023-04-03T10:59:56;2.20;;;1.63;;
17696;SDS011;8967;47.984;7.842;2023-04-03T11:02:28;2.38;;;1.73;;
17696;SDS011;8967;47.984;7.842;2023-04-03T11:04:58;2.08;;;1.42;;
17696;SDS011;8967;47.984;7.842;2023-04-03T11:07:28;2.35;;;1.90;;
17696;SDS011;8967;47.984;7.842;2023-04-03T11:10:00;1.60;;;1.50;;
17696;SDS011;8967;47.984;7.842;2023-04-03T11:12:33;2.17;;;1.33;;
17696;SDS011;8967;47.984;7.842;2023-04-03T11:15:11;1.50;;;1.40;;
17696;SDS011;8967;47.984;7.842;2023-04-03T11:17:41;1.75;;;1.48;;
17696;SDS011;8967;47.984;7.842;2023-04-03T11:20:16;1.98;;;1.60;;
17696;SDS011;8967;47.984;7.842;2023-04-03T11:22:47;2.30;;;1.77;;
17696;SDS011;8967;47.984;7.842;2023-04-03T11:25:18;1.77;;;1.60;;
17696;SDS011;8967;47.984;7.842;2023-04-03T11:27:49;1.70;;;1.60;;
17696;SDS011;8967;47.984;7.842;2023-04-03T11:30:30;2.75;;;2.10;;
17696;SDS011;8967;47.984;7.842;2023-04-03T11:35:51;3.05;;;1.60;;
17696;SDS011;8967;47.984;7.842;2023-04-03T11:38:21;2.55;;;1.90;;
17696;SDS011;8967;47.984;7.842;2023-04-03T11:40:54;1.83;;;1.73;;
17696;SDS011;8967;47.984;7.842;2023-04-03T11:43:24;2.83;;;1.60;;
17696;SDS011;8967;47.984;7.842;2023-04-03T11:45:56;3.30;;;1.85;;
17696;SDS011;8967;47.984;7.842;2023-04-03T11:48:42;1.50;;;1.40;;
17696;SDS011;8967;47.984;7.842;2023-04-03T12:00:49;1.55;;;1.30;;
17696;SDS011;8967;47.984;7.842;2023-04-03T12:12:42;3.78;;;2.45;;
17696;SDS011;8967;47.984;7.842;2023-04-03T12:15:23;2.15;;;1.95;;
17696;SDS011;8967;47.984;7.842;2023-04-03T12:21:18;2.00;;;1.80;;
17696;SDS011;8967;47.984;7.842;2023-04-03T12:23:56;2.00;;;1.67;;
17696;SDS011;8967;47.984;7.842;2023-04-03T12:26:30;3.47;;;2.17;;
17696;SDS011;8967;47.984;7.842;2023-04-03T12:29:02;2.35;;;2.03;;
17696;SDS011;8967;47.984;7.842;2023-04-03T12:31:45;1.85;;;1.65;;
17696;SDS011;8967;47.984;7.842;2023-04-03T12:37:42;2.47;;;1.95;;
17696;SDS011;8967;47.984;7.842;2023-04-03T12:40:21;1.70;;;1.60;;
17696;SDS011;8967;47.984;7.842;2023-04-03T12:42:57;2.08;;;1.88;;
17696;SDS011;8967;47.984;7.842;2023-04-03T12:45:40;2.30;;;1.85;;
17696;SDS011;8967;47.984;7.842;2023-04-03T12:48:12;2.90;;;1.80;;
17696;SDS011;8967;47.984;7.842;2023-04-03T12:50:41;2.45;;;2.03;;
17696;SDS011;8967;47.984;7.842;2023-04-03T12:53:13;2.25;;;2.05;;
17696;SDS011;8967;47.984;7.842;2023-04-03T12:55:44;2.85;;;1.65;;
17696;SDS011;8967;47.984;7.842;2023-04-03T12:58:15;1.58;;;1.48;;
17696;SDS011;8967;47.984;7.842;2023-04-03T13:00:43;2.83;;;1.60;;
17696;SDS011;8967;47.984;7.842;2023-04-03T13:03:20;3.08;;;1.92;;
17696;SDS011;8967;47.984;7.842;2023-04-03T13:05:49;3.70;;;2.00;;
17696;SDS011;8967;47.984;7.842;2023-04-03T13:08:18;2.15;;;1.60;;
17696;SDS011;8967;47.984;7.842;2023-04-03T13:10:48;3.20;;;1.83;;
17696;SDS011;8967;47.984;7.842;2023-04-03T13:13:25;4.47;;;1.85;;
17696;SDS011;8967;47.984;7.842;2023-04-03T13:15:52;1.98;;;1.60;;
17696;SDS011;8967;47.984;7.842;2023-04-03T13:18:25;3.45;;;1.55;;
17696;SDS011;8967;47.984;7.842;2023-04-03T13:21:01;1.75;;;1.55;;
17696;SDS011;8967;47.984;7.842;2023-04-03T13:23:43;3.15;;;2.08;;
17696;SDS011;8967;47.984;7.842;2023-04-03T13:26:14;3.33;;;1.67;;
17696;SDS011;8967;47.984;7.842;2023-04-03T13:28:45;2.30;;;2.03;;
17696;SDS011;8967;47.984;7.842;2023-04-03T13:31:17;2.13;;;1.75;;
17696;SDS011;8967;47.984;7.842;2023-04-03T13:33:56;2.90;;;1.95;;
17696;SDS011;8967;47.984;7.842;2023-04-03T13:36:29;2.47;;;1.77;;
17696;SDS011;8967;47.984;7.842;2023-04-03T13:39:03;2.22;;;2.00;;
17696;SDS011;8967;47.984;7.842;2023-04-03T13:41:34;3.60;;;1.50;;
17696;SDS011;8967;47.984;7.842;2023-04-03T13:46:54;3.75;;;1.77;;
17696;SDS011;8967;47.984;7.842;2023-04-03T13:49:26;5.95;;;1.77;;
17696;SDS011;8967;47.984;7.842;2023-04-03T13:51:57;2.58;;;1.73;;
17696;SDS011;8967;47.984;7.842;2023-04-03T13:54:29;4.00;;;1.50;;
17696;SDS011;8967;47.984;7.842;2023-04-03T13:56:58;2.58;;;1.50;;
17696;SDS011;8967;47.984;7.842;2023-04-03T13:59:27;1.55;;;1.45;;
17696;SDS011;8967;47.984;7.842;2023-04-03T14:02:09;3.05;;;1.77;;
17696;SDS011;8967;47.984;7.842;2023-04-03T14:04:47;2.58;;;1.40;;
17696;SDS011;8967;47.984;7.842;2023-04-03T14:07:18;2.53;;;1.73;;
17696;SDS011;8967;47.984;7.842;2023-04-03T14:09:48;1.88;;;1.40;;
17696;SDS011;8967;47.984;7.842;2023-04-03T14:12:16;2.50;;;1.55;;
17696;SDS011;8967;47.984;7.842;2023-04-03T14:14:45;2.58;;;1.63;;
17696;SDS011;8967;47.984;7.842;2023-04-03T14:17:13;2.78;;;1.75;;
17696;SDS011;8967;47.984;7.842;2023-04-03T14:19:42;2.20;;;1.40;;
17696;SDS011;8967;47.984;7.842;2023-04-03T14:22:12;1.42;;;1.33;;
17696;SDS011;8967;47.984;7.842;2023-04-03T14:24:41;2.03;;;1.60;;
17696;SDS011;8967;47.984;7.842;2023-04-03T14:27:13;2.80;;;1.63;;
17696;SDS011;8967;47.984;7.842;2023-04-03T14:29:43;3.10;;;1.77;;
17696;SDS011;8967;47.984;7.842;2023-04-03T14:32:10;3.55;;;1.73;;
17696;SDS011;8967;47.984;7.842;2023-04-03T14:34:41;1.88;;;1.60;;
17696;SDS011;8967;47.984;7.842;2023-04-03T14:37:10;1.80;;;1.60;;
17696;SDS011;8967;47.984;7.842;2023-04-03T14:39:38;1.80;;;1.48;;
17696;SDS011;8967;47.984;7.842;2023-04-03T14:42:06;3.45;;;1.40;;
17696;SDS011;8967;47.984;7.842;2023-04-03T14:44:37;2.70;;;1.77;;
17696;SDS011;8967;47.984;7.842;2023-04-03T14:47:04;3.83;;;1.80;;
17696;SDS011;8967;47.984;7.842;2023-04-03T14:49:31;3.70;;;2.08;;
17696;SDS011;8967;47.984;7.842;2023-04-03T14:51:58;7.90;;;4.57;;
17696;SDS011;8967;47.984;7.842;2023-04-03T14:54:25;4.43;;;2.75;;
17696;SDS011;8967;47.984;7.842;2023-04-03T14:56:54;2.75;;;1.80;;
17696;SDS011;8967;47.984;7.842;2023-04-03T14:59:22;3.83;;;1.63;;
17696;SDS011;8967;47.984;7.842;2023-04-03T15:01:51;1.80;;;1.42;;
17696;SDS011;8967;47.984;7.842;2023-04-03T15:04:19;2.00;;;1.50;;
17696;SDS011;8967;47.984;7.842;2023-04-03T15:06:47;1.58;;;1.48;;
17696;SDS011;8967;47.984;7.842;2023-04-03T15:09:18;2.40;;;1.77;;
17696;SDS011;8967;47.984;7.842;2023-04-03T15:11:47;2.10;;;1.85;;
17696;SDS011;8967;47.984;7.842;2023-04-03T15:14:14;2.42;;;1.83;;
17696;SDS011;8967;47.984;7.842;2023-04-03T15:16:41;2.13;;;1.48;;
17696;SDS011;8967;47.984;7.842;2023-04-03T15:19:12;4.43;;;2.00;;
17696;SDS011;8967;47.984;7.842;2023-04-03T15:21:39;3.00;;;1.92;;
17696;SDS011;8967;47.984;7.842;2023-04-03T15:24:06;2.78;;;1.98;;
17696;SDS011;8967;47.984;7.842;2023-04-03T15:26:35;1.70;;;1.55;;
17696;SDS011;8967;47.984;7.842;2023-04-03T15:29:03;2.78;;;2.13;;
17696;SDS011;8967;47.984;7.842;2023-04-03T15:31:30;4.60;;;2.15;;
17696;SDS011;8967;47.984;7.842;2023-04-03T15:33:57;2.58;;;1.60;;
17696;SDS011;8967;47.984;7.842;2023-04-03T15:36:26;2.97;;;1.90;;
17696;SDS011;8967;47.984;7.842;2023-04-03T15:38:53;3.05;;;1.55;;
17696;SDS011;8967;47.984;7.842;2023-04-03T15:41:19;4.43;;;2.25;;
17696;SDS011;8967;47.984;7.842;2023-04-03T15:43:46;1.92;;;1.30;;
17696;SDS011;8967;47.984;7.842;2023-04-03T15:46:13;2.45;;;2.20;;
17696;SDS011;8967;47.984;7.842;2023-04-03T15:48:40;1.70;;;1.58;;
17696;SDS011;8967;47.984;7.842;2023-04-03T15:51:09;1.60;;;1.45;;
17696;SDS011;8967;47.984;7.842;2023-04-03T15:53:37;3.30;;;1.55;;
17696;SDS011;8967;47.984;7.842;2023-04-03T15:56:07;2.28;;;1.83;;